x

Fairweather Ground 105nm West Of Juno, Ak (46083) Wave Buoy

3:50am - Mon 20th Nov 2017 All times are AKST. -9 hours from GMT.

  • Sig Wave height 9.5ft
  • Swell Direction
  • Peak Period 7s
  • Average Period 6s
  • Wind
    36mph, 45mph gusts
  • Sea Temp 46°f
  • Air Temp 37°f
  • Sea Pressure 995.4mb
  • Fairweather Ground 105nm West  Of Juno, Ak
  • Fairweather Ground 105nm West  Of Juno, Ak

More Historic Weather Station data

Upgrade to MSW Pro to gain access to the past 30 days of data for over 8000 Wavebouys and Weather Stations around the globe.

Join

Comparision Forecast

View Surf forecast
   
Mon 11/20 3:50am 9.5ft 7s 6s 36 45 mph 995.4mb 46f 37f
2:50am 10ft 7s 6s 36 40 mph 995.2mb 46f 37f
1:50am 9.5ft 7s 6s 36 40 mph 995mb 46f 35f
12:50am 9ft 7s 6s 34 38 mph 994.9mb 46f 36f
Sun 11/19 11:50pm 9.5ft 7s 6s 34 43 mph 994.7mb 46f 35f
10:50pm 9ft 7s 6s 34 40 mph 994.6mb 46f 34f
9:50pm 10ft 7s 6s 34 38 mph 994.4mb 46f 34f
8:50pm 8.5ft 7s 6s 31 38 mph 994.5mb 46f 33f
7:50pm 9ft 6s 6s 31 40 mph 994.4mb 46f 33f
6:50pm 8ft 6s 6s 31 38 mph 994.1mb 46f 32f
5:50pm 7.5ft 6s 5s 34 38 mph 993.7mb 46f 32f
4:50pm 6ft 6s 5s 31 38 mph 994mb 46f 32f
3:50pm 6ft 6s 5s 29 36 mph 994.5mb 46f 32f
2:50pm 5.5ft 6s 5s 29 34 mph 994.7mb 46f 31f
1:50pm 6ft 6s 5s 27 31 mph 995.2mb 46f 31f
12:50pm 5ft 6s 5s 27 31 mph 995.6mb 46f 31f
11:50am 5ft 5s 5s 25 31 mph 996.4mb 46f 32f
10:50am 4.5ft 9s 5s 25 31 mph 996.8mb 46f 32f
9:50am 4.5ft 10s 5s 20 25 mph 997.6mb 46f 32f
8:50am 4.5ft 10s 5s 18 25 mph 997.8mb 46f 32f
7:50am 4.5ft 10s 6s 16 22 mph 998.4mb 46f 33f
6:50am 4.5ft 10s 5s 18 22 mph 998.7mb 46f 33f
5:50am 4.5ft 10s 6s 13 20 mph 999.1mb 46f 34f
4:50am 4.5ft 10s 6s 9 16 mph 999.7mb 46f 34f
3:50am 5ft 10s 6s 9 11 mph 1000.3mb 46f 35f
2:50am 5ft 11s 5s 11 13 mph 1000.9mb 46f 35f
1:50am 5ft 10s 5s 11 13 mph 1001.4mb 46f 35f
12:50am 5ft 11s 5s 16 20 mph 1001.6mb 46f 36f
Sat 11/18 11:50pm 4.5ft 10s 6s 18 25 mph 1001.6mb 46f 36f
10:50pm 5ft 10s 6s 11 16 mph 1002.3mb 46f 36f
9:50pm 5ft 6s 5s 13 18 mph 1002.9mb 46f 36f
8:50pm 5.5ft 10s 6s 16 20 mph 1003.4mb 46f 37f
7:50pm 5ft 10s 6s 11 16 mph 1003.5mb 46f 37f
6:50pm 6ft 11s 6s 9 16 mph 1003.9mb 46f 37f
5:50pm 6ft 6s 6s 9 11 mph 1004.1mb 46f 37f
4:50pm 6.5ft 6s 6s 9 11 mph 1004.3mb 46f 38f
3:50pm 6.5ft 6s 6s 7 11 mph 1004.6mb 46f 38f
2:50pm 6.5ft 6s 6s 4 9 mph 1004.8mb 46f 38f
1:50pm 7ft 6s 6s 16 20 mph 1004.3mb 46f 39f
12:50pm 6.5ft 6s 6s 16 22 mph 1004.5mb 46f 39f
11:50am 7ft 6s 6s 20 25 mph 1004.5mb 46f 39f
10:50am 7.5ft 6s 6s 27 31 mph 1004mb 46f 38f
9:50am 7ft 6s 6s 25 29 mph 1004mb 46f 39f
8:50am 6.5ft 6s 6s 22 27 mph 1003.7mb 46f 39f
7:50am 7ft 10s 6s 20 25 mph 1003.4mb 46f 40f
6:50am 6.5ft 10s 6s 13 18 mph 1003.3mb 46f 40f
5:50am 6.5ft 10s 6s 7 11 mph 1003.1mb 46f 39f
4:50am 7ft 10s 6s 4 9 mph 1002.7mb 47f 40f
3:50am 7ft 11s 6s 4 9 mph 1002mb 47f 40f
2:50am 6.5ft 11s 6s 2 4 mph 1001.3mb 47f 40f
1:50am 7ft 6s 6s 2 7 mph 1000.6mb 47f 39f
12:50am 6ft 10s 6s  -  4 mph 999.8mb 46f 38f
Fri 11/17 11:50pm 6ft 6s 6s 9 11 mph 998.5mb 46f 40f
10:50pm 6ft 6s 6s 7 9 mph 997.7mb 46f 41f
9:50pm 6ft 7s 6s 9 13 mph 996.7mb 46f 40f
8:50pm 7.5ft 6s 6s 4 11 mph 996mb 46f 40f
7:50pm 8ft 6s 6s 11 16 mph 995.3mb 46f 40f
6:50pm 9ft 7s 6s 27 34 mph 993.9mb 46f 41f
5:50pm 10ft 8s 6s 25 34 mph 993.4mb 46f 40f
4:50pm 10ft 8s 6s 31 38 mph 992.2mb 46f 41f
3:50pm 10.5ft 8s 6s 31 38 mph 991.9mb 46f 40f
2:50pm 11.5ft 8s 7s 34 40 mph 991.4mb 46f 38f
1:50pm 11.5ft 7s 6s 34 43 mph 990.6mb 46f 39f
12:50pm 12ft 7s 6s 36 45 mph 990.3mb 46f 38f
11:50am 12ft 8s 7s 36 43 mph 990.3mb 47f 38f
10:50am 12ft 7s 6s 36 45 mph 990.7mb 47f 37f
9:50am 12.5ft 8s 6s 38 47 mph 990.7mb 47f 37f
8:50am 11ft 7s 6s 36 43 mph - 47f 38f
6:50am 9.5ft 7s 6s 34 40 mph 991.6mb 46f 36f
5:50am 9.5ft 7s 6s 36 43 mph 991.7mb 46f 35f
4:50am 9ft 6s 6s 36 43 mph 991.4mb 46f 36f
3:50am 9ft 6s 6s 36 43 mph 991.4mb 46f 37f
2:50am 8.5ft 6s 5s 34 43 mph 992.4mb 46f 37f
1:50am 7.5ft 6s 5s 22 29 mph 993.3mb 46f 41f
12:50am 6ft 5s 5s 22 29 mph 993.5mb 46f 41f
Thu 11/16 11:50pm 5ft 5s 4s 25 34 mph 994.5mb 46f 39f
10:50pm 4ft 5s 4s 22 27 mph 995.5mb 46f 38f
9:50pm 3ft 14s 4s 18 22 mph 996.4mb 47f 39f
8:50pm 2.5ft 14s 4s 16 22 mph 997mb 47f 40f
7:50pm 1.6ft 13s 5s 11 13 mph 997.9mb 47f 41f
6:50pm 1.6ft 14s 5s 7 9 mph 999.2mb 47f 40f
5:50pm 1.6ft 15s 6s 9 11 mph 999.9mb 47f 40f
4:50pm 1.6ft 16s 6s 9 11 mph 1000.5mb 47f 40f
3:50pm 1.6ft 14s 6s 7 9 mph 1001.2mb 47f 41f
2:50pm 1.6ft 14s 6s 4 7 mph 1001.8mb 47f 40f